sensor_id;sensor_type;location;lat;lon;timestamp;pressure;altitude;pressure_sealevel;temperature;humidity
28626;BME280;18905;42.668;23.364;2022-09-03T00:01:02;95036.50;;;17.96;100.00
28626;BME280;18905;42.668;23.364;2022-09-03T00:03:38;95057.53;;;18.14;100.00
28626;BME280;18905;42.668;23.364;2022-09-03T00:06:25;94997.53;;;17.99;100.00
28626;BME280;18905;42.668;23.364;2022-09-03T00:09:00;95063.56;;;18.49;100.00
28626;BME280;18905;42.668;23.364;2022-09-03T00:11:34;95046.84;;;17.83;100.00
28626;BME280;18905;42.668;23.364;2022-09-03T00:14:06;95065.09;;;18.24;100.00
28626;BME280;18905;42.668;23.364;2022-09-03T00:19:10;95054.72;;;17.66;100.00
28626;BME280;18905;42.668;23.364;2022-09-03T00:21:43;95052.41;;;17.68;100.00
28626;BME280;18905;42.668;23.364;2022-09-03T00:24:12;95059.22;;;18.00;100.00
28626;BME280;18905;42.668;23.364;2022-09-03T00:26:42;95056.88;;;18.47;100.00
28626;BME280;18905;42.668;23.364;2022-09-03T00:29:23;95039.81;;;17.82;100.00
28626;BME280;18905;42.668;23.364;2022-09-03T00:31:52;95060.06;;;17.81;100.00
28626;BME280;18905;42.668;23.364;2022-09-03T00:34:30;95062.28;;;17.53;100.00
28626;BME280;18905;42.668;23.364;2022-09-03T00:36:58;95029.88;;;17.97;100.00
28626;BME280;18905;42.668;23.364;2022-09-03T00:39:25;95063.63;;;17.85;100.00
28626;BME280;18905;42.668;23.364;2022-09-03T00:52:31;95043.94;;;17.95;100.00
28626;BME280;18905;42.668;23.364;2022-09-03T01:00:41;94989.63;;;16.50;100.00
28626;BME280;18905;42.668;23.364;2022-09-03T01:12:00;95061.47;;;17.94;100.00
28626;BME280;18905;42.668;23.364;2022-09-03T01:18:32;95049.97;;;18.30;100.00
28626;BME280;18905;42.668;23.364;2022-09-03T01:25:44;95069.50;;;17.84;100.00
28626;BME280;18905;42.668;23.364;2022-09-03T01:28:37;95058.38;;;17.73;100.00
28626;BME280;18905;42.668;23.364;2022-09-03T01:42:19;95072.09;;;17.01;100.00
28626;BME280;18905;42.668;23.364;2022-09-03T01:59:14;95073.25;;;17.00;100.00
28626;BME280;18905;42.668;23.364;2022-09-03T02:01:52;95035.34;;;17.14;100.00
28626;BME280;18905;42.668;23.364;2022-09-03T02:04:23;95061.41;;;17.49;100.00
28626;BME280;18905;42.668;23.364;2022-09-03T02:06:50;95036.03;;;16.54;100.00
28626;BME280;18905;42.668;23.364;2022-09-03T02:09:17;95072.78;;;17.32;100.00
28626;BME280;18905;42.668;23.364;2022-09-03T02:11:44;95018.78;;;16.84;100.00
28626;BME280;18905;42.668;23.364;2022-09-03T02:14:11;95062.44;;;17.22;100.00
28626;BME280;18905;42.668;23.364;2022-09-03T02:16:37;95088.16;;;17.40;100.00
28626;BME280;18905;42.668;23.364;2022-09-03T02:19:14;95063.50;;;17.18;100.00
28626;BME280;18905;42.668;23.364;2022-09-03T02:21:48;95088.31;;;16.75;100.00
28626;BME280;18905;42.668;23.364;2022-09-03T02:24:14;95090.13;;;17.05;100.00
28626;BME280;18905;42.668;23.364;2022-09-03T02:26:40;95066.41;;;16.71;100.00
28626;BME280;18905;42.668;23.364;2022-09-03T02:29:06;95093.53;;;16.83;100.00
28626;BME280;18905;42.668;23.364;2022-09-03T02:31:31;95039.53;;;16.89;100.00
28626;BME280;18905;42.668;23.364;2022-09-03T02:33:57;95030.91;;;17.25;100.00
28626;BME280;18905;42.668;23.364;2022-09-03T02:36:33;95055.13;;;17.45;100.00
28626;BME280;18905;42.668;23.364;2022-09-03T02:38:59;95089.47;;;17.69;100.00
28626;BME280;18905;42.668;23.364;2022-09-03T02:41:25;95079.50;;;17.57;100.00
28626;BME280;18905;42.668;23.364;2022-09-03T02:46:52;95061.50;;;16.61;100.00
28626;BME280;18905;42.668;23.364;2022-09-03T02:49:18;95090.13;;;17.24;100.00
28626;BME280;18905;42.668;23.364;2022-09-03T02:51:44;95100.63;;;18.24;100.00
28626;BME280;18905;42.668;23.364;2022-09-03T02:54:10;95072.78;;;17.51;100.00
28626;BME280;18905;42.668;23.364;2022-09-03T02:56:36;95103.63;;;16.98;100.00
28626;BME280;18905;42.668;23.364;2022-09-03T02:59:04;95095.72;;;17.12;100.00
28626;BME280;18905;42.668;23.364;2022-09-03T03:01:29;95104.88;;;17.58;100.00
28626;BME280;18905;42.668;23.364;2022-09-03T03:03:55;95056.25;;;17.06;100.00
28626;BME280;18905;42.668;23.364;2022-09-03T03:06:21;95102.03;;;16.97;100.00
28626;BME280;18905;42.668;23.364;2022-09-03T03:08:49;95070.88;;;16.14;100.00
28626;BME280;18905;42.668;23.364;2022-09-03T03:11:16;95100.97;;;17.02;100.00
28626;BME280;18905;42.668;23.364;2022-09-03T03:13:44;95094.59;;;17.13;100.00
28626;BME280;18905;42.668;23.364;2022-09-03T03:16:10;95052.00;;;16.71;100.00
28626;BME280;18905;42.668;23.364;2022-09-03T03:18:35;95097.66;;;17.69;100.00
28626;BME280;18905;42.668;23.364;2022-09-03T03:21:07;95022.78;;;16.71;100.00
28626;BME280;18905;42.668;23.364;2022-09-03T03:23:34;95044.59;;;16.71;100.00
28626;BME280;18905;42.668;23.364;2022-09-03T03:26:04;95090.50;;;17.42;100.00
28626;BME280;18905;42.668;23.364;2022-09-03T03:28:31;95096.78;;;17.42;100.00
28626;BME280;18905;42.668;23.364;2022-09-03T03:31:12;95093.78;;;17.32;100.00
28626;BME280;18905;42.668;23.364;2022-09-03T03:33:39;95035.13;;;17.03;100.00
28626;BME280;18905;42.668;23.364;2022-09-03T03:36:06;95080.47;;;17.87;100.00
28626;BME280;18905;42.668;23.364;2022-09-03T03:38:32;95100.25;;;18.03;100.00
28626;BME280;18905;42.668;23.364;2022-09-03T03:40:57;95030.44;;;17.83;100.00
28626;BME280;18905;42.668;23.364;2022-09-03T03:43:23;95056.72;;;17.69;100.00
28626;BME280;18905;42.668;23.364;2022-09-03T03:45:56;95101.94;;;17.47;100.00
28626;BME280;18905;42.668;23.364;2022-09-03T03:48:22;95108.28;;;16.98;100.00
28626;BME280;18905;42.668;23.364;2022-09-03T03:50:47;95044.34;;;16.76;100.00
28626;BME280;18905;42.668;23.364;2022-09-03T03:53:13;95104.34;;;17.71;100.00
28626;BME280;18905;42.668;23.364;2022-09-03T03:55:38;95058.97;;;17.63;100.00
28626;BME280;18905;42.668;23.364;2022-09-03T03:58:04;95047.16;;;16.64;100.00
28626;BME280;18905;42.668;23.364;2022-09-03T04:00:29;95061.41;;;16.92;100.00
28626;BME280;18905;42.668;23.364;2022-09-03T04:02:54;95021.72;;;16.76;100.00
28626;BME280;18905;42.668;23.364;2022-09-03T04:05:20;95044.34;;;16.26;100.00
28626;BME280;18905;42.668;23.364;2022-09-03T04:07:45;95073.53;;;16.76;100.00
28626;BME280;18905;42.668;23.364;2022-09-03T04:10:11;95076.19;;;17.29;100.00
28626;BME280;18905;42.668;23.364;2022-09-03T04:12:36;95112.25;;;17.00;100.00
28626;BME280;18905;42.668;23.364;2022-09-03T04:15:01;95016.91;;;16.19;100.00
28626;BME280;18905;42.668;23.364;2022-09-03T04:17:27;95111.41;;;16.81;100.00
28626;BME280;18905;42.668;23.364;2022-09-03T04:19:52;95064.56;;;16.60;100.00
28626;BME280;18905;42.668;23.364;2022-09-03T04:22:18;95088.97;;;17.25;100.00
28626;BME280;18905;42.668;23.364;2022-09-03T04:24:44;95072.59;;;16.87;100.00
28626;BME280;18905;42.668;23.364;2022-09-03T04:27:10;95108.88;;;17.26;100.00
28626;BME280;18905;42.668;23.364;2022-09-03T04:29:35;94997.44;;;16.02;100.00
28626;BME280;18905;42.668;23.364;2022-09-03T04:32:01;95112.88;;;17.47;100.00
28626;BME280;18905;42.668;23.364;2022-09-03T04:34:44;95099.94;;;17.63;100.00
28626;BME280;18905;42.668;23.364;2022-09-03T04:37:10;95028.41;;;16.97;100.00
28626;BME280;18905;42.668;23.364;2022-09-03T04:39:37;95093.97;;;17.20;100.00
28626;BME280;18905;42.668;23.364;2022-09-03T04:42:03;95132.97;;;17.39;100.00
28626;BME280;18905;42.668;23.364;2022-09-03T04:44:28;95141.84;;;18.35;100.00
28626;BME280;18905;42.668;23.364;2022-09-03T04:46:54;95126.31;;;19.17;100.00
28626;BME280;18905;42.668;23.364;2022-09-03T04:49:19;95123.03;;;18.78;100.00
28626;BME280;18905;42.668;23.364;2022-09-03T04:51:44;95134.28;;;18.28;100.00
28626;BME280;18905;42.668;23.364;2022-09-03T04:54:10;95126.44;;;18.04;100.00
28626;BME280;18905;42.668;23.364;2022-09-03T04:56:37;95149.53;;;18.07;100.00
28626;BME280;18905;42.668;23.364;2022-09-03T04:59:05;95149.16;;;18.31;100.00
28626;BME280;18905;42.668;23.364;2022-09-03T05:01:33;95149.59;;;18.33;100.00
28626;BME280;18905;42.668;23.364;2022-09-03T05:04:00;95132.09;;;17.73;100.00
28626;BME280;18905;42.668;23.364;2022-09-03T05:06:27;95117.19;;;18.12;100.00
28626;BME280;18905;42.668;23.364;2022-09-03T05:08:54;95167.13;;;19.25;100.00
28626;BME280;18905;42.668;23.364;2022-09-03T05:11:20;95171.38;;;17.88;100.00
28626;BME280;18905;42.668;23.364;2022-09-03T05:13:48;95169.94;;;19.06;100.00
28626;BME280;18905;42.668;23.364;2022-09-03T05:16:14;95172.78;;;18.87;100.00
28626;BME280;18905;42.668;23.364;2022-09-03T05:18:40;95162.50;;;19.59;100.00
28626;BME280;18905;42.668;23.364;2022-09-03T05:21:11;95125.38;;;18.54;100.00
28626;BME280;18905;42.668;23.364;2022-09-03T05:23:39;95148.00;;;18.54;100.00
28626;BME280;18905;42.668;23.364;2022-09-03T05:26:06;95137.28;;;18.01;100.00
28626;BME280;18905;42.668;23.364;2022-09-03T05:28:36;95147.00;;;17.98;100.00
28626;BME280;18905;42.668;23.364;2022-09-03T05:33:29;95169.97;;;17.56;100.00
28626;BME280;18905;42.668;23.364;2022-09-03T05:36:05;95149.47;;;18.26;100.00
28626;BME280;18905;42.668;23.364;2022-09-03T05:38:32;95170.25;;;19.01;100.00
28626;BME280;18905;42.668;23.364;2022-09-03T05:40:58;95162.97;;;18.60;100.00
28626;BME280;18905;42.668;23.364;2022-09-03T05:43:25;95175.28;;;17.68;100.00
28626;BME280;18905;42.668;23.364;2022-09-03T05:45:50;95181.69;;;17.75;100.00
28626;BME280;18905;42.668;23.364;2022-09-03T05:48:16;95168.84;;;17.22;100.00
28626;BME280;18905;42.668;23.364;2022-09-03T05:50:41;95177.94;;;17.83;100.00
28626;BME280;18905;42.668;23.364;2022-09-03T05:53:06;95187.88;;;17.72;100.00
28626;BME280;18905;42.668;23.364;2022-09-03T05:55:32;95162.84;;;17.70;100.00
28626;BME280;18905;42.668;23.364;2022-09-03T05:57:58;95157.09;;;18.36;100.00
28626;BME280;18905;42.668;23.364;2022-09-03T06:00:23;95161.75;;;17.94;100.00
28626;BME280;18905;42.668;23.364;2022-09-03T06:02:52;95171.34;;;18.48;100.00
28626;BME280;18905;42.668;23.364;2022-09-03T06:05:18;95187.97;;;17.98;100.00
28626;BME280;18905;42.668;23.364;2022-09-03T06:07:44;95180.19;;;18.19;100.00
28626;BME280;18905;42.668;23.364;2022-09-03T06:10:13;95188.44;;;18.42;100.00
28626;BME280;18905;42.668;23.364;2022-09-03T06:12:40;95192.19;;;17.73;100.00
28626;BME280;18905;42.668;23.364;2022-09-03T06:15:05;95186.06;;;17.99;100.00
28626;BME280;18905;42.668;23.364;2022-09-03T06:17:31;95197.44;;;17.28;100.00
28626;BME280;18905;42.668;23.364;2022-09-03T06:19:56;95166.84;;;18.14;100.00
28626;BME280;18905;42.668;23.364;2022-09-03T06:22:21;95184.31;;;18.10;100.00
28626;BME280;18905;42.668;23.364;2022-09-03T06:24:49;95166.47;;;17.55;100.00
28626;BME280;18905;42.668;23.364;2022-09-03T06:27:15;95168.81;;;17.95;100.00
28626;BME280;18905;42.668;23.364;2022-09-03T06:29:40;95184.31;;;18.51;100.00
28626;BME280;18905;42.668;23.364;2022-09-03T06:32:05;95199.06;;;18.69;100.00
28626;BME280;18905;42.668;23.364;2022-09-03T06:34:31;95170.94;;;19.21;100.00
28626;BME280;18905;42.668;23.364;2022-09-03T06:36:56;95202.34;;;18.78;100.00
28626;BME280;18905;42.668;23.364;2022-09-03T06:39:22;95190.78;;;19.14;100.00
28626;BME280;18905;42.668;23.364;2022-09-03T06:41:48;95210.78;;;19.70;100.00
28626;BME280;18905;42.668;23.364;2022-09-03T06:44:16;95159.03;;;19.98;100.00
28626;BME280;18905;42.668;23.364;2022-09-03T06:46:41;95194.75;;;20.82;100.00
28626;BME280;18905;42.668;23.364;2022-09-03T06:49:07;95200.03;;;19.58;100.00
28626;BME280;18905;42.668;23.364;2022-09-03T06:51:33;95181.31;;;19.08;100.00
28626;BME280;18905;42.668;23.364;2022-09-03T06:54:04;95174.38;;;18.88;100.00
28626;BME280;18905;42.668;23.364;2022-09-03T06:56:30;95204.91;;;18.26;100.00
28626;BME280;18905;42.668;23.364;2022-09-03T06:58:59;95205.16;;;18.59;100.00
28626;BME280;18905;42.668;23.364;2022-09-03T07:01:29;95199.69;;;18.59;100.00
28626;BME280;18905;42.668;23.364;2022-09-03T07:04:02;95204.06;;;18.03;100.00
28626;BME280;18905;42.668;23.364;2022-09-03T07:06:31;95208.69;;;18.18;100.00
28626;BME280;18905;42.668;23.364;2022-09-03T07:08:57;95204.00;;;18.60;100.00
28626;BME280;18905;42.668;23.364;2022-09-03T07:11:26;95214.31;;;18.29;100.00
28626;BME280;18905;42.668;23.364;2022-09-03T07:13:53;95182.50;;;18.36;100.00
28626;BME280;18905;42.668;23.364;2022-09-03T07:16:28;95189.25;;;18.91;100.00
28626;BME280;18905;42.668;23.364;2022-09-03T07:18:55;95216.69;;;19.20;100.00
28626;BME280;18905;42.668;23.364;2022-09-03T07:21:26;95201.59;;;18.81;100.00
28626;BME280;18905;42.668;23.364;2022-09-03T07:23:53;95223.72;;;19.21;100.00
28626;BME280;18905;42.668;23.364;2022-09-03T07:26:24;95223.75;;;19.47;100.00
28626;BME280;18905;42.668;23.364;2022-09-03T07:28:50;95217.78;;;19.16;100.00
28626;BME280;18905;42.668;23.364;2022-09-03T07:31:20;95237.41;;;19.73;100.00
28626;BME280;18905;42.668;23.364;2022-09-03T07:33:56;95239.66;;;19.38;100.00
28626;BME280;18905;42.668;23.364;2022-09-03T07:36:23;95239.00;;;18.51;100.00
28626;BME280;18905;42.668;23.364;2022-09-03T07:38:49;95237.19;;;19.07;100.00
28626;BME280;18905;42.668;23.364;2022-09-03T07:41:15;95202.81;;;18.84;100.00
28626;BME280;18905;42.668;23.364;2022-09-03T07:43:42;95237.22;;;18.62;100.00
28626;BME280;18905;42.668;23.364;2022-09-03T07:46:12;95245.50;;;18.88;100.00
28626;BME280;18905;42.668;23.364;2022-09-03T07:48:39;95243.22;;;19.16;100.00
28626;BME280;18905;42.668;23.364;2022-09-03T07:51:05;95234.34;;;19.49;100.00
28626;BME280;18905;42.668;23.364;2022-09-03T07:53:32;95228.44;;;20.06;100.00
28626;BME280;18905;42.668;23.364;2022-09-03T07:56:06;95233.56;;;21.24;100.00
28626;BME280;18905;42.668;23.364;2022-09-03T07:58:34;95244.00;;;21.66;100.00
28626;BME280;18905;42.668;23.364;2022-09-03T08:01:26;95242.81;;;21.56;100.00
28626;BME280;18905;42.668;23.364;2022-09-03T08:03:59;95240.16;;;21.20;100.00
28626;BME280;18905;42.668;23.364;2022-09-03T08:06:26;95243.13;;;20.94;100.00
28626;BME280;18905;42.668;23.364;2022-09-03T08:08:57;95240.47;;;20.64;100.00
28626;BME280;18905;42.668;23.364;2022-09-03T08:11:24;95254.19;;;20.67;100.00
28626;BME280;18905;42.668;23.364;2022-09-03T08:13:58;95253.94;;;20.79;100.00
28626;BME280;18905;42.668;23.364;2022-09-03T08:16:29;95237.59;;;21.44;100.00
28626;BME280;18905;42.668;23.364;2022-09-03T08:18:56;95231.41;;;22.36;100.00
28626;BME280;18905;42.668;23.364;2022-09-03T08:21:22;95240.03;;;21.53;100.00
28626;BME280;18905;42.668;23.364;2022-09-03T08:23:50;95246.13;;;21.83;100.00
28626;BME280;18905;42.668;23.364;2022-09-03T08:26:18;95248.19;;;21.39;100.00
28626;BME280;18905;42.668;23.364;2022-09-03T08:28:44;95233.59;;;20.11;100.00
28626;BME280;18905;42.668;23.364;2022-09-03T08:31:11;95242.19;;;20.82;100.00
28626;BME280;18905;42.668;23.364;2022-09-03T08:33:39;95229.50;;;21.62;100.00
28626;BME280;18905;42.668;23.364;2022-09-03T08:38:35;95246.41;;;20.33;100.00
28626;BME280;18905;42.668;23.364;2022-09-03T08:41:27;95247.75;;;21.33;100.00
28626;BME280;18905;42.668;23.364;2022-09-03T08:49:10;95220.16;;;23.08;100.00
28626;BME280;18905;42.668;23.364;2022-09-03T08:51:37;95234.97;;;24.19;100.00
28626;BME280;18905;42.668;23.364;2022-09-03T08:54:06;95227.66;;;23.21;100.00
28626;BME280;18905;42.668;23.364;2022-09-03T08:56:37;95220.53;;;23.52;100.00
28626;BME280;18905;42.668;23.364;2022-09-03T08:59:03;95232.31;;;22.72;100.00
28626;BME280;18905;42.668;23.364;2022-09-03T09:06:55;95234.88;;;22.12;100.00
28626;BME280;18905;42.668;23.364;2022-09-03T09:12:37;95227.16;;;22.46;100.00
28626;BME280;18905;42.668;23.364;2022-09-03T09:23:17;95229.13;;;22.49;100.00
28626;BME280;18905;42.668;23.364;2022-09-03T09:25:47;95230.97;;;22.20;100.00
28626;BME280;18905;42.668;23.364;2022-09-03T09:28:21;95240.31;;;22.02;100.00
28626;BME280;18905;42.668;23.364;2022-09-03T09:30:50;95242.16;;;22.76;100.00
28626;BME280;18905;42.668;23.364;2022-09-03T09:33:17;95244.56;;;23.02;100.00
28626;BME280;18905;42.668;23.364;2022-09-03T09:35:44;95237.50;;;23.40;100.00
28626;BME280;18905;42.668;23.364;2022-09-03T09:38:10;95242.88;;;24.10;100.00
28626;BME280;18905;42.668;23.364;2022-09-03T09:40:38;95242.91;;;23.89;92.83
28626;BME280;18905;42.668;23.364;2022-09-03T09:43:14;95233.44;;;24.00;99.02
28626;BME280;18905;42.668;23.364;2022-09-03T09:45:46;95238.94;;;24.11;100.00
28626;BME280;18905;42.668;23.364;2022-09-03T09:50:45;95235.09;;;22.86;100.00
28626;BME280;18905;42.668;23.364;2022-09-03T09:53:11;95241.81;;;23.20;100.00
28626;BME280;18905;42.668;23.364;2022-09-03T09:55:55;95231.13;;;22.66;100.00
28626;BME280;18905;42.668;23.364;2022-09-03T09:58:25;95210.84;;;21.31;100.00
28626;BME280;18905;42.668;23.364;2022-09-03T10:01:04;95233.72;;;22.24;100.00
28626;BME280;18905;42.668;23.364;2022-09-03T10:03:40;95245.28;;;22.75;100.00
28626;BME280;18905;42.668;23.364;2022-09-03T10:06:13;95243.34;;;22.79;100.00
28626;BME280;18905;42.668;23.364;2022-09-03T10:09:13;95114.72;;;22.97;97.93
28626;BME280;18905;42.668;23.364;2022-09-03T10:11:43;95124.16;;;23.06;100.00
28626;BME280;18905;42.668;23.364;2022-09-03T10:14:15;95246.44;;;24.07;100.00
28626;BME280;18905;42.668;23.364;2022-09-03T10:16:46;95218.59;;;23.42;94.97
28626;BME280;18905;42.668;23.364;2022-09-03T10:19:35;95165.44;;;23.45;97.05
28626;BME280;18905;42.668;23.364;2022-09-03T10:22:13;95128.50;;;22.65;100.00
28626;BME280;18905;42.668;23.364;2022-09-03T10:25:01;95137.94;;;22.89;100.00
28626;BME280;18905;42.668;23.364;2022-09-03T10:27:27;95126.78;;;21.87;100.00
28626;BME280;18905;42.668;23.364;2022-09-03T10:29:54;95109.53;;;22.18;100.00
28626;BME280;18905;42.668;23.364;2022-09-03T10:32:28;95232.31;;;23.70;100.00
28626;BME280;18905;42.668;23.364;2022-09-03T10:35:19;95232.44;;;24.52;100.00
28626;BME280;18905;42.668;23.364;2022-09-03T10:40:54;95216.22;;;23.40;98.31
28626;BME280;18905;42.668;23.364;2022-09-03T10:46:26;95232.25;;;24.05;97.34
28626;BME280;18905;42.668;23.364;2022-09-03T11:00:24;95221.75;;;26.04;80.47
28626;BME280;18905;42.668;23.364;2022-09-03T11:05:40;95227.34;;;26.34;74.86
28626;BME280;18905;42.668;23.364;2022-09-03T11:10:48;95207.69;;;25.47;81.91
28626;BME280;18905;42.668;23.364;2022-09-03T11:13:38;95222.13;;;25.69;77.70
28626;BME280;18905;42.668;23.364;2022-09-03T11:16:17;95216.06;;;25.40;79.29
28626;BME280;18905;42.668;23.364;2022-09-03T11:18:50;95225.19;;;25.78;79.07
28626;BME280;18905;42.668;23.364;2022-09-03T11:21:23;95204.28;;;25.73;73.71
28626;BME280;18905;42.668;23.364;2022-09-03T11:24:05;95222.88;;;24.71;76.12
28626;BME280;18905;42.668;23.364;2022-09-03T11:26:34;95227.03;;;24.28;85.70
28626;BME280;18905;42.668;23.364;2022-09-03T11:34:31;95221.72;;;25.67;79.36
28626;BME280;18905;42.668;23.364;2022-09-03T11:39:38;95220.69;;;25.03;79.27
28626;BME280;18905;42.668;23.364;2022-09-03T11:42:12;95225.53;;;25.43;81.17
28626;BME280;18905;42.668;23.364;2022-09-03T11:44:49;95204.59;;;25.42;85.73
28626;BME280;18905;42.668;23.364;2022-09-03T11:49:48;95181.69;;;24.97;78.10
28626;BME280;18905;42.668;23.364;2022-09-03T11:52:27;95193.59;;;24.84;77.14
28626;BME280;18905;42.668;23.364;2022-09-03T11:54:54;95176.31;;;24.01;79.42
28626;BME280;18905;42.668;23.364;2022-09-03T11:57:27;95230.53;;;24.39;87.27
28626;BME280;18905;42.668;23.364;2022-09-03T11:59:53;95223.88;;;24.29;83.24
28626;BME280;18905;42.668;23.364;2022-09-03T12:13:12;95130.81;;;24.91;81.99
28626;BME280;18905;42.668;23.364;2022-09-03T12:16:17;95089.91;;;24.76;83.51
28626;BME280;18905;42.668;23.364;2022-09-03T12:18:48;95092.78;;;24.62;86.57
28626;BME280;18905;42.668;23.364;2022-09-03T12:21:21;95140.66;;;24.96;73.70
28626;BME280;18905;42.668;23.364;2022-09-03T12:23:51;95131.63;;;24.88;75.74
28626;BME280;18905;42.668;23.364;2022-09-03T12:26:20;95205.38;;;24.91;81.44
28626;BME280;18905;42.668;23.364;2022-09-03T12:28:53;95075.38;;;24.14;86.78
28626;BME280;18905;42.668;23.364;2022-09-03T12:31:30;95082.16;;;25.04;82.94
28626;BME280;18905;42.668;23.364;2022-09-03T12:33:59;95094.94;;;25.32;75.77
28626;BME280;18905;42.668;23.364;2022-09-03T12:36:35;95094.84;;;24.95;78.79
28626;BME280;18905;42.668;23.364;2022-09-03T12:39:23;95205.06;;;25.74;76.40
28626;BME280;18905;42.668;23.364;2022-09-03T12:42:07;95199.22;;;24.70;83.89
28626;BME280;18905;42.668;23.364;2022-09-03T12:47:16;95171.97;;;24.72;81.24
28626;BME280;18905;42.668;23.364;2022-09-03T12:49:45;95074.81;;;24.87;79.04
28626;BME280;18905;42.668;23.364;2022-09-03T12:52:24;95130.09;;;24.22;79.86
28626;BME280;18905;42.668;23.364;2022-09-03T12:54:52;95154.84;;;24.36;85.27
28626;BME280;18905;42.668;23.364;2022-09-03T12:57:23;95134.53;;;23.99;83.79
28626;BME280;18905;42.668;23.364;2022-09-03T12:59:56;95139.34;;;24.56;88.49
28626;BME280;18905;42.668;23.364;2022-09-03T13:02:27;95069.94;;;24.61;79.63
28626;BME280;18905;42.668;23.364;2022-09-03T13:04:57;95085.53;;;24.82;83.12
28626;BME280;18905;42.668;23.364;2022-09-03T13:07:28;95089.13;;;25.16;76.54
28626;BME280;18905;42.668;23.364;2022-09-03T13:10:28;95076.59;;;24.06;80.04
28626;BME280;18905;42.668;23.364;2022-09-03T13:13:18;95044.16;;;23.52;81.16
28626;BME280;18905;42.668;23.364;2022-09-03T13:21:41;95137.75;;;23.83;84.29
28626;BME280;18905;42.668;23.364;2022-09-03T13:30:07;95164.91;;;25.18;71.14
28626;BME280;18905;42.668;23.364;2022-09-03T13:35:27;95154.41;;;24.45;83.15
28626;BME280;18905;42.668;23.364;2022-09-03T13:38:11;95033.28;;;23.99;80.59
28626;BME280;18905;42.668;23.364;2022-09-03T13:40:59;95086.16;;;24.49;80.22
28626;BME280;18905;42.668;23.364;2022-09-03T13:46:06;95034.84;;;24.04;79.38
28626;BME280;18905;42.668;23.364;2022-09-03T13:48:43;95068.81;;;23.80;85.88
28626;BME280;18905;42.668;23.364;2022-09-03T13:51:40;95109.19;;;24.83;79.89
28626;BME280;18905;42.668;23.364;2022-09-03T13:57:04;95144.72;;;25.25;76.98
28626;BME280;18905;42.668;23.364;2022-09-03T13:59:42;95033.50;;;24.26;80.94
28626;BME280;18905;42.668;23.364;2022-09-03T14:05:09;95039.06;;;24.19;78.13
28626;BME280;18905;42.668;23.364;2022-09-03T14:16:00;95155.34;;;25.30;73.22
28626;BME280;18905;42.668;23.364;2022-09-03T14:21:07;95038.38;;;24.04;73.19
28626;BME280;18905;42.668;23.364;2022-09-03T14:26:02;95115.50;;;24.80;78.05
28626;BME280;18905;42.668;23.364;2022-09-03T14:28:35;95051.47;;;23.93;79.01
28626;BME280;18905;42.668;23.364;2022-09-03T14:36:50;95167.31;;;24.62;77.74
28626;BME280;18905;42.668;23.364;2022-09-03T14:44:55;95030.31;;;23.62;77.75
28626;BME280;18905;42.668;23.364;2022-09-03T14:50:55;95042.25;;;24.17;79.60
28626;BME280;18905;42.668;23.364;2022-09-03T15:01:01;95042.97;;;24.76;80.11
28626;BME280;18905;42.668;23.364;2022-09-03T15:11:51;95146.16;;;24.38;93.36
28626;BME280;18905;42.668;23.364;2022-09-03T15:14:34;95063.31;;;23.83;95.03
28626;BME280;18905;42.668;23.364;2022-09-03T15:17:24;95117.47;;;24.25;94.72
28626;BME280;18905;42.668;23.364;2022-09-03T15:23:10;95166.97;;;24.53;93.93
28626;BME280;18905;42.668;23.364;2022-09-03T15:32:15;95172.94;;;24.44;97.84
28626;BME280;18905;42.668;23.364;2022-09-03T15:37:22;95064.81;;;24.02;95.37
28626;BME280;18905;42.668;23.364;2022-09-03T15:40:00;95068.34;;;23.99;95.57
28626;BME280;18905;42.668;23.364;2022-09-03T15:42:27;95057.91;;;23.62;97.73
28626;BME280;18905;42.668;23.364;2022-09-03T15:45:01;95049.38;;;23.15;100.00
28626;BME280;18905;42.668;23.364;2022-09-03T15:47:36;95194.44;;;23.88;100.00
28626;BME280;18905;42.668;23.364;2022-09-03T15:52:48;95115.88;;;23.13;100.00
28626;BME280;18905;42.668;23.364;2022-09-03T15:55:25;95096.22;;;23.01;100.00
28626;BME280;18905;42.668;23.364;2022-09-03T15:58:02;95157.59;;;23.22;100.00
28626;BME280;18905;42.668;23.364;2022-09-03T16:00:47;95153.28;;;23.28;100.00
28626;BME280;18905;42.668;23.364;2022-09-03T16:03:19;95087.59;;;22.57;100.00
28626;BME280;18905;42.668;23.364;2022-09-03T16:05:51;95113.16;;;22.96;100.00
28626;BME280;18905;42.668;23.364;2022-09-03T16:08:39;95152.09;;;23.08;100.00
28626;BME280;18905;42.668;23.364;2022-09-03T16:11:23;95137.53;;;23.04;100.00
28626;BME280;18905;42.668;23.364;2022-09-03T16:16:25;95169.00;;;22.93;100.00
28626;BME280;18905;42.668;23.364;2022-09-03T16:19:09;95103.72;;;22.62;100.00
28626;BME280;18905;42.668;23.364;2022-09-03T16:21:58;95091.50;;;22.94;100.00
28626;BME280;18905;42.668;23.364;2022-09-03T16:24:42;95103.31;;;22.95;100.00
28626;BME280;18905;42.668;23.364;2022-09-03T16:35:23;95115.50;;;22.94;100.00
28626;BME280;18905;42.668;23.364;2022-09-03T16:37:55;95243.00;;;23.54;100.00
28626;BME280;18905;42.668;23.364;2022-09-03T16:40:40;95248.41;;;23.89;100.00
28626;BME280;18905;42.668;23.364;2022-09-03T16:43:26;95243.78;;;23.47;100.00
28626;BME280;18905;42.668;23.364;2022-09-03T16:49:00;95239.03;;;23.06;100.00
28626;BME280;18905;42.668;23.364;2022-09-03T16:51:56;95246.94;;;23.21;100.00
28626;BME280;18905;42.668;23.364;2022-09-03T16:54:34;95255.53;;;22.78;100.00
28626;BME280;18905;42.668;23.364;2022-09-03T17:21:38;95286.16;;;22.66;100.00
28626;BME280;18905;42.668;23.364;2022-09-03T17:29:54;95286.25;;;23.04;100.00